Bath, South Carolina
Current Conditions -  °F | °C
As of 5:53 PM on Thursday 23 Oct 2014 (Local Time) from KDNL Reporting Station
Clear Clear  
Wind Chill: 71°   Ceiling: Unl
Heat Index: 71°   Visibility: 10mi
Dew Point: 40°   Wind: 5mph
Humidity: 32%   Direction: 350°N
Pressure: 30.01"   Gusts: NA
Location:  33.5°N, 81.87°W
Report Text: KDNL 232153Z AUTO 35004KT 10SM CLR 22/04 A3001 RMK AO2 SLP161 T02170044
Loading
Personal Weather Stations






























Interactive Weather Map
Tropical Storm Tracking
New forecast layout! Learn more

10-Day Weather Forecast

Advertisements
Track Severe Weather on mobile